createdAt,value
2018-10-06T00:00:20.764Z,11.47
2018-10-06T00:01:24.358Z,9.90
2018-10-06T00:02:27.992Z,10.67
2018-10-06T00:03:31.491Z,12.47
2018-10-06T00:04:35.161Z,9.53
2018-10-06T00:05:38.736Z,11.27
2018-10-06T00:06:42.222Z,13.03
2018-10-06T00:07:45.854Z,9.80
2018-10-06T00:08:49.392Z,11.07
2018-10-06T00:09:52.961Z,10.83
2018-10-06T00:10:56.458Z,9.30
2018-10-06T00:12:00.015Z,11.83
2018-10-06T00:13:03.598Z,13.00
2018-10-06T00:14:07.099Z,10.67
2018-10-06T00:15:11.063Z,11.23
2018-10-06T00:16:14.642Z,12.37
2018-10-06T00:17:18.588Z,10.60
2018-10-06T00:18:22.077Z,12.37
2018-10-06T00:19:25.611Z,11.87
2018-10-06T00:20:29.138Z,13.43
2018-10-06T00:21:32.779Z,11.60
2018-10-06T00:22:36.417Z,11.73
2018-10-06T00:23:39.949Z,11.47
2018-10-06T00:24:43.573Z,12.57
2018-10-06T00:25:47.163Z,11.20
2018-10-06T00:26:50.751Z,14.43
2018-10-06T00:27:54.236Z,13.50
2018-10-06T00:28:57.915Z,12.67
2018-10-06T00:30:01.489Z,11.70
2018-10-06T00:31:05.089Z,12.80
2018-10-06T00:32:08.699Z,13.60
2018-10-06T00:33:12.369Z,11.80
2018-10-06T00:34:15.974Z,10.93
2018-10-06T00:35:20.575Z,11.40
2018-10-06T00:36:24.193Z,11.30
2018-10-06T00:37:27.793Z,11.47
2018-10-06T00:38:31.370Z,12.40
2018-10-06T00:39:34.928Z,14.03
2018-10-06T00:40:38.458Z,12.50
2018-10-06T00:41:41.984Z,13.47
2018-10-06T00:42:45.691Z,12.10
2018-10-06T00:43:49.250Z,12.20
2018-10-06T00:44:52.810Z,10.03
2018-10-06T00:45:56.410Z,9.77
2018-10-06T00:46:59.985Z,10.50
2018-10-06T00:48:03.515Z,13.27
2018-10-06T00:49:07.033Z,14.23
2018-10-06T00:50:10.628Z,10.50
2018-10-06T00:51:14.321Z,12.57
2018-10-06T00:52:17.833Z,10.60
2018-10-06T00:53:21.416Z,17.53
2018-10-06T00:54:25.053Z,12.20
2018-10-06T00:55:28.737Z,11.53
2018-10-06T00:56:32.278Z,14.43
2018-10-06T00:57:35.845Z,13.90
2018-10-06T00:58:39.550Z,11.30
2018-10-06T00:59:43.101Z,11.00
2018-10-06T01:00:46.652Z,14.93
2018-10-06T01:01:50.412Z,15.13
2018-10-06T01:02:54.057Z,14.07
2018-10-06T01:03:57.726Z,15.60
2018-10-06T01:05:01.259Z,15.40
2018-10-06T01:06:04.896Z,15.23
2018-10-06T01:07:08.463Z,18.67
2018-10-06T01:08:12.047Z,16.83
2018-10-06T01:09:15.557Z,24.07
2018-10-06T01:10:19.141Z,24.20
2018-10-06T01:11:22.758Z,32.27
2018-10-06T01:12:27.325Z,36.37
2018-10-06T01:13:31.017Z,25.80
2018-10-06T01:14:34.675Z,21.07
2018-10-06T01:15:38.243Z,20.47
2018-10-06T01:16:41.778Z,19.47
2018-10-06T01:17:45.423Z,19.30
2018-10-06T01:18:48.954Z,14.37
2018-10-06T01:19:52.579Z,16.20
2018-10-06T01:20:56.084Z,17.90
2018-10-06T01:21:59.596Z,14.00
2018-10-06T01:23:03.110Z,15.77
2018-10-06T01:24:06.646Z,27.20
2018-10-06T01:25:10.186Z,27.77
2018-10-06T01:26:13.740Z,28.57
2018-10-06T01:27:17.394Z,26.13
2018-10-06T01:28:20.943Z,20.43
2018-10-06T01:29:24.489Z,20.80
2018-10-06T01:30:28.131Z,21.00
2018-10-06T01:31:31.723Z,27.73
2018-10-06T01:32:35.323Z,22.37
2018-10-06T01:33:38.888Z,19.10
2018-10-06T01:34:43.561Z,21.87
2018-10-06T01:35:47.278Z,21.37
2018-10-06T01:36:50.860Z,22.87
2018-10-06T01:37:54.385Z,22.40
2018-10-06T01:38:57.930Z,22.93
2018-10-06T01:40:01.469Z,22.33
2018-10-06T01:41:05.066Z,25.40
2018-10-06T01:42:08.763Z,21.90
2018-10-06T01:43:12.370Z,22.07
2018-10-06T01:44:15.947Z,21.23
2018-10-06T01:45:19.542Z,22.10
2018-10-06T01:46:23.095Z,23.83
2018-10-06T01:47:26.655Z,19.10
2018-10-06T01:48:30.280Z,25.30
2018-10-06T01:49:33.842Z,14.90
2018-10-06T01:50:37.515Z,16.13
2018-10-06T01:51:41.023Z,18.17
2018-10-06T01:52:44.550Z,18.23
2018-10-06T01:53:48.107Z,18.30
2018-10-06T01:54:51.637Z,18.50
2018-10-06T01:55:55.260Z,16.00
2018-10-06T01:56:58.845Z,15.63
2018-10-06T01:58:02.425Z,15.67
2018-10-06T01:59:06.031Z,16.37
2018-10-06T02:00:09.618Z,15.13
2018-10-06T02:01:13.222Z,16.10
2018-10-06T02:02:16.756Z,18.17
2018-10-06T02:03:20.513Z,13.77
2018-10-06T02:04:24.841Z,16.20
2018-10-06T02:05:28.464Z,15.20
2018-10-06T02:06:31.965Z,16.80
2018-10-06T02:07:35.631Z,16.23
2018-10-06T02:08:39.271Z,17.87
2018-10-06T02:09:43.096Z,14.20
2018-10-06T02:10:46.784Z,14.43
2018-10-06T02:11:50.539Z,19.10
2018-10-06T02:12:54.161Z,19.77
2018-10-06T02:13:57.722Z,18.30
2018-10-06T02:15:01.224Z,16.73
2018-10-06T02:16:04.778Z,17.17
2018-10-06T02:17:08.334Z,16.07
2018-10-06T02:18:12.065Z,20.43
2018-10-06T02:19:15.640Z,20.87
2018-10-06T02:20:19.225Z,19.40
2018-10-06T02:21:22.927Z,19.30
2018-10-06T02:22:26.476Z,17.23
2018-10-06T02:23:29.993Z,18.07
2018-10-06T02:24:33.546Z,18.07
2018-10-06T02:25:37.349Z,17.23
2018-10-06T02:26:41.161Z,16.73
2018-10-06T02:27:44.788Z,21.07
2018-10-06T02:28:48.313Z,17.77
2018-10-06T02:29:51.867Z,19.40
2018-10-06T02:30:55.428Z,19.73
2018-10-06T02:31:58.957Z,19.00
2018-10-06T02:33:02.510Z,20.17
2018-10-06T02:34:06.056Z,18.53
2018-10-06T02:35:10.473Z,14.27
2018-10-06T02:36:14.003Z,14.87
2018-10-06T02:37:17.534Z,14.50
2018-10-06T02:38:21.167Z,18.57
2018-10-06T02:39:24.695Z,17.33
2018-10-06T02:40:28.271Z,15.67
2018-10-06T02:41:31.804Z,17.83
2018-10-06T02:42:35.311Z,15.27
2018-10-06T02:43:38.877Z,15.33
2018-10-06T02:44:42.431Z,16.73
2018-10-06T02:45:46.283Z,17.50
2018-10-06T02:46:49.825Z,14.40
2018-10-06T02:47:53.354Z,18.83
2018-10-06T02:48:56.892Z,15.73
2018-10-06T02:50:00.430Z,17.43
2018-10-06T02:51:03.971Z,18.10
2018-10-06T02:52:07.498Z,14.83
2018-10-06T02:53:11.485Z,16.13
2018-10-06T02:54:15.022Z,17.10
2018-10-06T02:55:18.525Z,17.97
2018-10-06T02:56:22.275Z,16.70
2018-10-06T02:57:25.833Z,17.40
2018-10-06T02:58:29.645Z,15.13
2018-10-06T02:59:33.191Z,17.30
2018-10-06T03:00:36.790Z,20.27
2018-10-06T03:01:40.347Z,19.80
2018-10-06T03:02:43.878Z,15.83
2018-10-06T03:03:47.592Z,22.13
2018-10-06T03:04:51.082Z,16.37
2018-10-06T03:05:54.572Z,21.23
2018-10-06T03:06:58.123Z,23.60
2018-10-06T03:08:01.662Z,20.87
2018-10-06T03:09:07.203Z,23.67
2018-10-06T03:10:10.913Z,24.00
2018-10-06T03:11:14.597Z,22.83
2018-10-06T03:12:18.099Z,19.73
2018-10-06T03:13:21.707Z,22.23
2018-10-06T03:14:25.238Z,19.17
2018-10-06T03:15:28.758Z,18.90
2018-10-06T03:16:32.271Z,21.03
2018-10-06T03:17:35.790Z,24.53
2018-10-06T03:18:39.912Z,21.63
2018-10-06T03:19:43.649Z,22.47
2018-10-06T03:20:47.158Z,20.97
2018-10-06T03:21:50.687Z,20.90
2018-10-06T03:22:54.221Z,22.57
2018-10-06T03:23:57.779Z,19.70
2018-10-06T03:25:01.399Z,21.60
2018-10-06T03:26:05.011Z,24.80
2018-10-06T03:27:08.686Z,22.20
2018-10-06T03:28:12.369Z,19.63
2018-10-06T03:29:16.000Z,23.27
2018-10-06T03:30:19.563Z,21.80
2018-10-06T03:31:23.266Z,24.00
2018-10-06T03:32:27.020Z,20.03
2018-10-06T03:33:30.477Z,20.43
2018-10-06T03:34:33.965Z,20.60
2018-10-06T03:35:37.858Z,23.10
2018-10-06T03:36:41.387Z,21.03
2018-10-06T03:37:44.896Z,18.87
2018-10-06T03:38:48.419Z,24.43
2018-10-06T03:39:51.894Z,24.67
2018-10-06T03:40:55.501Z,26.27
2018-10-06T03:41:59.050Z,31.13
2018-10-06T03:43:02.545Z,26.07
2018-10-06T03:44:06.051Z,27.70
2018-10-06T03:45:09.661Z,26.93
2018-10-06T03:46:13.881Z,28.83
2018-10-06T03:47:17.413Z,24.57
2018-10-06T03:48:20.964Z,23.20
2018-10-06T03:49:24.745Z,24.80
2018-10-06T03:50:28.189Z,21.63
2018-10-06T03:51:31.677Z,21.90
2018-10-06T03:52:35.156Z,25.23
2018-10-06T03:53:38.714Z,20.20
2018-10-06T03:54:42.257Z,25.27
2018-10-06T03:55:45.917Z,22.47
2018-10-06T03:56:49.419Z,24.53
2018-10-06T03:57:53.794Z,26.40
2018-10-06T03:58:57.634Z,22.23
2018-10-06T04:00:01.219Z,21.00
2018-10-06T04:01:04.740Z,27.57
2018-10-06T04:02:08.283Z,26.20
2018-10-06T04:03:11.925Z,26.57
2018-10-06T04:04:15.383Z,22.83
2018-10-06T04:05:18.882Z,24.97
2018-10-06T04:06:22.382Z,20.20
2018-10-06T04:07:26.236Z,23.23
2018-10-06T04:08:29.797Z,25.20
2018-10-06T04:09:33.679Z,27.07
2018-10-06T04:10:37.923Z,25.87
2018-10-06T04:11:42.204Z,30.83
2018-10-06T04:12:45.935Z,27.80
2018-10-06T04:13:49.488Z,28.47
2018-10-06T04:14:53.051Z,22.50
2018-10-06T04:15:56.683Z,24.10
2018-10-06T04:17:00.317Z,24.13
2018-10-06T04:18:03.924Z,24.37
2018-10-06T04:19:07.484Z,20.57
2018-10-06T04:20:11.263Z,22.03
2018-10-06T04:21:14.875Z,19.77
2018-10-06T04:22:18.485Z,20.50
2018-10-06T04:23:22.081Z,22.83
2018-10-06T04:24:25.797Z,18.17
2018-10-06T04:25:29.414Z,22.23
2018-10-06T04:26:33.410Z,25.90
2018-10-06T04:27:37.178Z,21.57
2018-10-06T04:28:40.860Z,21.83
2018-10-06T04:29:44.527Z,22.53
2018-10-06T04:30:48.128Z,27.07
2018-10-06T04:31:51.768Z,25.87
2018-10-06T04:32:55.408Z,25.67
2018-10-06T04:33:59.089Z,21.80
2018-10-06T04:35:02.863Z,25.13
2018-10-06T04:36:06.594Z,24.23
2018-10-06T04:37:10.213Z,24.40
2018-10-06T04:38:13.700Z,26.00
2018-10-06T04:39:17.413Z,28.27
2018-10-06T04:40:22.026Z,27.10
2018-10-06T04:41:27.666Z,28.60
2018-10-06T04:42:31.330Z,27.93
2018-10-06T04:43:34.837Z,23.47
2018-10-06T04:44:38.373Z,27.27
2018-10-06T04:45:41.834Z,29.87
2018-10-06T04:46:45.312Z,33.77
2018-10-06T04:47:49.025Z,25.83
2018-10-06T04:48:52.535Z,24.73
2018-10-06T04:49:56.024Z,26.53
2018-10-06T04:50:59.536Z,23.83
2018-10-06T04:52:03.061Z,24.07
2018-10-06T04:53:06.770Z,26.27
2018-10-06T04:54:10.278Z,23.13
2018-10-06T04:55:13.810Z,23.40
2018-10-06T04:56:17.317Z,24.10
2018-10-06T04:57:20.814Z,23.43
2018-10-06T04:58:24.350Z,25.17
2018-10-06T04:59:27.942Z,24.17
2018-10-06T05:00:31.413Z,24.80
2018-10-06T05:01:35.071Z,30.57
2018-10-06T05:02:38.887Z,25.63
2018-10-06T05:03:42.824Z,26.00
2018-10-06T05:04:46.700Z,27.23
2018-10-06T05:05:50.546Z,28.43
2018-10-06T05:06:54.043Z,27.97
2018-10-06T05:07:57.584Z,26.73
2018-10-06T05:09:01.282Z,28.50
2018-10-06T05:10:05.045Z,29.77
2018-10-06T05:11:08.527Z,31.13
2018-10-06T05:12:12.423Z,30.57
2018-10-06T05:13:15.993Z,37.23
2018-10-06T05:14:19.558Z,30.67
2018-10-06T05:15:23.150Z,34.83
2018-10-06T05:16:26.745Z,39.40
2018-10-06T05:17:30.234Z,34.33
2018-10-06T05:18:34.267Z,34.43
2018-10-06T05:19:37.807Z,38.10
2018-10-06T05:20:41.313Z,45.97
2018-10-06T05:21:44.816Z,39.03
2018-10-06T05:22:48.347Z,41.70
2018-10-06T05:23:52.318Z,41.73
2018-10-06T05:24:55.778Z,43.30
2018-10-06T05:25:59.330Z,43.97
2018-10-06T05:27:02.894Z,37.53
2018-10-06T05:28:06.544Z,40.27
2018-10-06T05:29:10.200Z,37.63
2018-10-06T05:30:14.486Z,37.53
2018-10-06T05:31:17.953Z,40.63
2018-10-06T05:32:21.467Z,45.87
2018-10-06T05:33:25.843Z,38.67
2018-10-06T05:34:29.380Z,52.17
2018-10-06T05:35:32.947Z,41.10
2018-10-06T05:36:36.593Z,40.63
2018-10-06T05:37:40.223Z,38.60
2018-10-06T05:38:43.805Z,37.13
2018-10-06T05:39:47.709Z,39.50
2018-10-06T05:40:51.293Z,39.23
2018-10-06T05:41:54.820Z,41.00
2018-10-06T05:42:58.421Z,38.83
2018-10-06T05:44:02.081Z,37.23
2018-10-06T05:45:06.187Z,40.47
2018-10-06T05:46:10.189Z,34.57
2018-10-06T05:47:14.236Z,32.30
2018-10-06T05:48:17.883Z,35.47
2018-10-06T05:49:21.574Z,38.87
2018-10-06T05:50:25.218Z,36.97
2018-10-06T05:51:29.827Z,36.77
2018-10-06T05:52:33.542Z,41.00
2018-10-06T05:53:37.312Z,40.40
2018-10-06T05:54:40.949Z,34.63
2018-10-06T05:55:44.619Z,38.67
2018-10-06T05:56:48.314Z,37.80
2018-10-06T05:57:52.019Z,38.87
2018-10-06T05:58:55.761Z,37.47
2018-10-06T05:59:59.691Z,35.10
2018-10-06T06:01:03.880Z,38.43
2018-10-06T06:02:09.953Z,36.83
2018-10-06T06:03:14.179Z,37.70
2018-10-06T06:04:17.781Z,38.97
2018-10-06T06:05:21.415Z,39.97
2018-10-06T06:06:25.076Z,44.67
2018-10-06T06:07:28.933Z,38.23
2018-10-06T06:08:32.714Z,37.20
2018-10-06T06:09:36.625Z,39.30
2018-10-06T06:10:40.251Z,42.23
2018-10-06T06:11:43.891Z,44.40
2018-10-06T06:12:47.639Z,39.40
2018-10-06T06:13:52.189Z,41.27
2018-10-06T06:14:56.640Z,39.97
2018-10-06T06:16:00.271Z,40.90
2018-10-06T06:17:04.091Z,40.70
2018-10-06T06:18:07.818Z,40.67
2018-10-06T06:19:11.870Z,42.10
2018-10-06T06:20:16.170Z,40.97
2018-10-06T06:21:19.960Z,44.97
2018-10-06T06:22:24.228Z,38.50
2018-10-06T06:23:27.955Z,46.63
2018-10-06T06:24:31.691Z,40.93
2018-10-06T06:25:35.387Z,39.57
2018-10-06T06:26:40.126Z,39.70
2018-10-06T06:27:43.873Z,41.67
2018-10-06T06:28:47.442Z,41.60
2018-10-06T06:29:51.745Z,39.37
2018-10-06T06:30:55.692Z,43.97
2018-10-06T06:31:59.398Z,38.83
2018-10-06T06:33:03.171Z,42.40
2018-10-06T06:34:06.841Z,42.83
2018-10-06T06:35:10.872Z,44.33
2018-10-06T06:36:14.585Z,37.10
2018-10-06T06:37:19.368Z,45.50
2018-10-06T06:38:23.049Z,43.27
2018-10-06T06:39:26.766Z,41.67
2018-10-06T06:40:30.522Z,37.63
2018-10-06T06:41:34.881Z,36.67
2018-10-06T06:42:39.320Z,38.83
2018-10-06T06:43:43.912Z,41.40
2018-10-06T06:44:48.253Z,38.80
2018-10-06T06:45:52.513Z,33.93
2018-10-06T06:46:56.797Z,37.97
2018-10-06T06:48:01.045Z,36.17
2018-10-06T06:49:05.460Z,38.63
2018-10-06T06:50:09.733Z,30.97
2018-10-06T06:51:14.141Z,37.00
2018-10-06T06:52:18.093Z,28.60
2018-10-06T06:53:21.695Z,26.70
2018-10-06T06:54:25.348Z,24.47
2018-10-06T06:55:29.048Z,19.70
2018-10-06T06:56:32.784Z,18.03
2018-10-06T06:57:36.535Z,17.87
2018-10-06T06:58:41.014Z,17.97
2018-10-06T06:59:44.738Z,15.28
2018-10-06T07:00:48.866Z,13.60
2018-10-06T07:01:52.891Z,15.60
2018-10-06T07:02:56.913Z,16.40
2018-10-06T07:04:22.926Z,14.25
2018-10-06T07:05:48.885Z,15.03
2018-10-06T07:07:12.254Z,14.18
2018-10-06T07:08:38.107Z,13.30
2018-10-06T07:09:42.818Z,12.73
2018-10-06T07:10:46.704Z,13.30
2018-10-06T07:11:50.551Z,13.85
2018-10-06T07:12:54.497Z,12.23
2018-10-06T07:13:58.289Z,11.75
2018-10-06T07:15:02.121Z,10.48
2018-10-06T07:16:05.901Z,10.23
2018-10-06T07:17:09.749Z,13.75
2018-10-06T07:18:13.631Z,12.58
2018-10-06T07:19:17.433Z,14.47
2018-10-06T07:20:21.120Z,10.95
2018-10-06T07:21:26.013Z,9.50
2018-10-06T07:22:29.761Z,11.45
2018-10-06T07:23:33.470Z,8.90
2018-10-06T07:24:37.315Z,11.93
2018-10-06T07:25:41.100Z,9.30
2018-10-06T07:26:44.756Z,10.30
2018-10-06T07:27:48.606Z,13.25
2018-10-06T07:28:52.357Z,11.40
2018-10-06T07:29:56.054Z,9.70
2018-10-06T07:30:59.720Z,12.35
2018-10-06T07:32:03.385Z,11.90
2018-10-06T07:33:07.013Z,11.40
2018-10-06T07:34:10.762Z,11.68
2018-10-06T07:35:14.533Z,10.70
2018-10-06T07:36:18.675Z,8.95
2018-10-06T07:37:23.571Z,9.33
2018-10-06T07:38:28.096Z,10.88
2018-10-06T07:39:32.720Z,11.85
2018-10-06T07:40:38.576Z,10.43
2018-10-06T07:41:42.981Z,10.00
2018-10-06T07:42:46.985Z,9.28
2018-10-06T07:43:51.337Z,11.08
2018-10-06T07:44:55.808Z,8.50
2018-10-06T07:45:59.914Z,9.40
2018-10-06T07:47:04.332Z,8.93
2018-10-06T07:48:08.595Z,9.83
2018-10-06T07:49:13.175Z,10.82
2018-10-06T07:50:16.836Z,10.35
2018-10-06T07:51:20.410Z,10.90
2018-10-06T07:52:23.986Z,10.23
2018-10-06T07:53:27.614Z,11.30
2018-10-06T07:54:31.204Z,9.90
2018-10-06T07:55:34.846Z,9.20
2018-10-06T07:56:40.032Z,10.15
2018-10-06T07:57:43.594Z,11.88
2018-10-06T07:58:47.248Z,11.85
2018-10-06T07:59:50.810Z,7.45
2018-10-06T08:00:54.382Z,8.90
2018-10-06T08:01:57.986Z,9.73
2018-10-06T08:03:01.563Z,7.95
2018-10-06T08:04:05.297Z,7.85
2018-10-06T08:05:08.874Z,10.08
2018-10-06T08:06:12.638Z,7.75
2018-10-06T08:07:16.211Z,8.18
2018-10-06T08:08:19.773Z,9.45
2018-10-06T08:09:23.417Z,7.08
2018-10-06T08:10:26.966Z,10.82
2018-10-06T08:11:30.625Z,8.58
2018-10-06T08:12:34.221Z,7.08
2018-10-06T08:13:37.823Z,7.83
2018-10-06T08:14:41.419Z,10.32
2018-10-06T08:15:44.971Z,9.00
2018-10-06T08:16:48.568Z,8.43
2018-10-06T08:17:52.100Z,9.48
2018-10-06T08:18:55.646Z,8.15
2018-10-06T08:19:59.525Z,10.90
2018-10-06T08:21:03.031Z,7.83
2018-10-06T08:22:06.552Z,8.38
2018-10-06T08:23:10.132Z,8.03
2018-10-06T08:24:13.819Z,7.47
2018-10-06T08:25:17.341Z,7.20
2018-10-06T08:26:21.272Z,7.47
2018-10-06T08:27:24.841Z,8.25
2018-10-06T08:28:28.428Z,9.18
2018-10-06T08:29:32.291Z,7.58
2018-10-06T08:30:35.799Z,7.62
2018-10-06T08:31:39.548Z,7.78
2018-10-06T08:32:43.186Z,9.58
2018-10-06T08:33:46.829Z,8.18
2018-10-06T08:34:50.458Z,8.25
2018-10-06T08:35:54.496Z,9.05
2018-10-06T08:36:58.062Z,7.70
2018-10-06T08:38:01.578Z,7.53
2018-10-06T08:39:07.098Z,9.13
2018-10-06T08:40:10.867Z,8.35
2018-10-06T08:41:14.583Z,9.25
2018-10-06T08:42:18.131Z,6.78
2018-10-06T08:43:21.952Z,6.65
2018-10-06T08:44:25.533Z,10.00
2018-10-06T08:45:29.379Z,7.80
2018-10-06T08:46:32.982Z,8.13
2018-10-06T08:47:36.603Z,7.58
2018-10-06T08:48:40.388Z,7.53
2018-10-06T08:49:43.984Z,8.78
2018-10-06T08:50:47.589Z,8.03
2018-10-06T08:51:51.260Z,7.22
2018-10-06T08:52:54.946Z,6.35
2018-10-06T08:53:58.591Z,7.45
2018-10-06T08:55:02.229Z,6.90
2018-10-06T08:56:05.951Z,7.72
2018-10-06T08:57:09.412Z,6.25
2018-10-06T08:58:13.584Z,7.92
2018-10-06T08:59:17.098Z,8.95
2018-10-06T09:00:20.682Z,7.53
2018-10-06T09:01:24.817Z,7.03
2018-10-06T09:02:28.358Z,8.50
2018-10-06T09:03:32.047Z,7.83
2018-10-06T09:04:35.590Z,7.33
2018-10-06T09:05:39.201Z,7.42
2018-10-06T09:06:42.836Z,6.53
2018-10-06T09:07:46.386Z,9.20
2018-10-06T09:08:50.011Z,7.92
2018-10-06T09:09:53.582Z,7.72
2018-10-06T09:10:57.328Z,6.55
2018-10-06T09:12:00.819Z,7.40
2018-10-06T09:13:04.432Z,6.83
2018-10-06T09:14:07.988Z,8.18
2018-10-06T09:15:11.728Z,9.90
2018-10-06T09:16:15.399Z,6.15
2018-10-06T09:17:18.998Z,6.33
2018-10-06T09:18:22.618Z,6.35
2018-10-06T09:19:26.215Z,5.90
2018-10-06T09:20:29.803Z,5.40
2018-10-06T09:21:33.569Z,7.35
2018-10-06T09:22:37.177Z,5.25
2018-10-06T09:23:41.520Z,4.87
2018-10-06T09:24:45.094Z,5.30
2018-10-06T09:25:48.717Z,7.25
2018-10-06T09:26:52.374Z,7.08
2018-10-06T09:27:55.946Z,7.53
2018-10-06T09:28:59.552Z,5.67
2018-10-06T09:30:03.155Z,5.55
2018-10-06T09:31:07.177Z,4.53
2018-10-06T09:32:11.672Z,5.80
2018-10-06T09:33:15.278Z,7.28
2018-10-06T09:34:19.210Z,5.28
2018-10-06T09:35:22.803Z,5.70
2018-10-06T09:36:27.082Z,8.25
2018-10-06T09:37:30.688Z,5.50
2018-10-06T09:38:34.260Z,4.60
2018-10-06T09:39:38.123Z,6.42
2018-10-06T09:40:42.218Z,5.30
2018-10-06T09:41:45.887Z,6.67
2018-10-06T09:42:50.315Z,5.62
2018-10-06T09:43:54.304Z,7.33
2018-10-06T09:44:57.881Z,6.72
2018-10-06T09:46:01.869Z,5.37
2018-10-06T09:47:05.498Z,4.97
2018-10-06T09:48:09.291Z,5.55
2018-10-06T09:49:13.152Z,7.22
2018-10-06T09:50:17.399Z,4.65
2018-10-06T09:51:20.965Z,5.00
2018-10-06T09:52:24.553Z,4.37
2018-10-06T09:53:28.189Z,6.47
2018-10-06T09:54:31.914Z,4.33
2018-10-06T09:55:36.021Z,4.55
2018-10-06T09:56:41.129Z,4.28
2018-10-06T09:57:44.998Z,4.00
2018-10-06T09:58:48.710Z,5.47
2018-10-06T09:59:52.568Z,5.15
2018-10-06T10:01:01.353Z,5.28
2018-10-06T10:02:14.386Z,4.62
2018-10-06T10:03:23.643Z,5.67
2018-10-06T10:04:27.174Z,4.78
2018-10-06T10:05:36.169Z,4.00
2018-10-06T10:06:41.130Z,4.92
2018-10-06T10:07:45.538Z,3.52
2018-10-06T10:08:49.377Z,7.28
2018-10-06T10:09:53.416Z,4.85
2018-10-06T10:10:58.064Z,5.53
2018-10-06T10:12:02.366Z,5.22
2018-10-06T10:13:06.062Z,5.55
2018-10-06T10:14:10.657Z,5.25
2018-10-06T10:15:14.440Z,6.42
2018-10-06T10:16:18.214Z,5.30
2018-10-06T10:17:21.885Z,3.75
2018-10-06T10:18:25.685Z,4.20
2018-10-06T10:19:29.737Z,4.90
2018-10-06T10:20:33.542Z,6.30
2018-10-06T10:21:37.131Z,5.72
2018-10-06T10:22:41.344Z,4.20
2018-10-06T10:23:44.849Z,4.80
2018-10-06T10:24:48.509Z,3.67
2018-10-06T10:25:52.054Z,5.25
2018-10-06T10:26:55.872Z,6.20
2018-10-06T10:27:59.455Z,5.50
2018-10-06T10:29:03.327Z,6.58
2018-10-06T10:30:07.736Z,6.58
2018-10-06T10:31:11.461Z,3.40
2018-10-06T10:32:15.243Z,3.37
2018-10-06T10:33:18.954Z,4.70
2018-10-06T10:34:22.933Z,7.30
2018-10-06T10:35:26.676Z,5.03
2018-10-06T10:36:30.504Z,5.25
2018-10-06T10:37:34.839Z,7.42
2018-10-06T10:38:38.544Z,4.95
2018-10-06T10:39:42.511Z,4.40
2018-10-06T10:40:46.024Z,3.95
2018-10-06T10:41:49.585Z,4.55
2018-10-06T10:42:53.226Z,3.30
2018-10-06T10:43:57.267Z,3.90
2018-10-06T10:45:00.894Z,6.25
2018-10-06T10:46:04.582Z,5.15
2018-10-06T10:47:09.287Z,6.53
2018-10-06T10:48:13.517Z,9.05
2018-10-06T10:49:17.156Z,5.20
2018-10-06T10:50:20.817Z,5.67
2018-10-06T10:51:24.575Z,4.28
2018-10-06T10:52:28.478Z,8.18
2018-10-06T10:53:32.224Z,4.72
2018-10-06T10:54:36.391Z,5.92
2018-10-06T10:55:40.025Z,7.50
2018-10-06T10:56:43.632Z,4.78
2018-10-06T10:57:47.404Z,4.35
2018-10-06T10:58:50.963Z,4.25
2018-10-06T10:59:54.777Z,4.03
2018-10-06T11:00:58.239Z,5.90
2018-10-06T11:02:01.917Z,10.58
2018-10-06T11:03:05.733Z,5.58
2018-10-06T11:04:09.991Z,3.75
2018-10-06T11:05:13.619Z,6.12
2018-10-06T11:06:17.249Z,2.98
2018-10-06T11:07:20.882Z,3.20
2018-10-06T11:08:24.489Z,3.35
2018-10-06T11:09:28.145Z,3.10
2018-10-06T11:10:31.619Z,4.22
2018-10-06T11:11:35.594Z,3.65
2018-10-06T11:12:39.334Z,3.80
2018-10-06T11:13:43.065Z,3.83
2018-10-06T11:14:46.683Z,4.50
2018-10-06T11:15:50.252Z,3.40
2018-10-06T11:16:54.915Z,3.02
2018-10-06T11:17:58.650Z,4.35
2018-10-06T11:19:02.763Z,4.97
2018-10-06T11:20:06.683Z,4.42
2018-10-06T11:21:10.309Z,4.85
2018-10-06T11:22:14.019Z,4.08
2018-10-06T11:23:17.534Z,3.10
2018-10-06T11:24:21.958Z,3.17
2018-10-06T11:25:25.920Z,5.42
2018-10-06T11:26:31.597Z,2.92
2018-10-06T11:27:35.407Z,4.58
2018-10-06T11:28:39.063Z,4.47
2018-10-06T11:29:42.717Z,5.03
2018-10-06T11:30:46.576Z,5.03
2018-10-06T11:31:50.188Z,2.92
2018-10-06T11:32:53.824Z,5.67
2018-10-06T11:33:57.540Z,6.40
2018-10-06T11:35:01.244Z,5.67
2018-10-06T11:36:04.870Z,4.55
2018-10-06T11:37:09.249Z,6.25
2018-10-06T11:38:13.085Z,7.87
2018-10-06T11:39:16.703Z,4.25
2018-10-06T11:40:20.341Z,7.08
2018-10-06T11:41:24.422Z,5.33
2018-10-06T11:42:28.149Z,3.70
2018-10-06T11:43:32.474Z,3.08
2018-10-06T11:44:36.196Z,3.98
2018-10-06T11:45:41.311Z,4.25
2018-10-06T11:46:46.295Z,4.42
2018-10-06T11:47:52.882Z,4.40
2018-10-06T11:48:56.491Z,3.67
2018-10-06T11:50:00.407Z,3.58
2018-10-06T11:51:04.658Z,3.87
2018-10-06T11:52:08.471Z,4.45
2018-10-06T11:53:12.300Z,4.95
2018-10-06T11:54:15.997Z,5.35
2018-10-06T11:55:19.658Z,3.45
2018-10-06T11:56:23.295Z,4.00
2018-10-06T11:57:26.811Z,4.03
2018-10-06T11:58:30.449Z,4.62
2018-10-06T11:59:34.122Z,3.60
2018-10-06T12:00:37.861Z,5.08
2018-10-06T12:01:41.670Z,4.60
2018-10-06T12:02:45.242Z,4.55
2018-10-06T12:03:48.809Z,5.28
2018-10-06T12:04:52.975Z,4.17
2018-10-06T12:05:58.089Z,4.97
2018-10-06T12:07:01.811Z,3.12
2018-10-06T12:08:05.375Z,3.77
2018-10-06T12:09:09.586Z,3.65
2018-10-06T12:10:14.051Z,5.08
2018-10-06T12:11:18.165Z,6.17
2018-10-06T12:12:21.816Z,4.47
2018-10-06T12:13:25.443Z,4.20
2018-10-06T12:14:29.081Z,3.40
2018-10-06T12:15:32.818Z,3.58
2018-10-06T12:16:36.923Z,4.28
2018-10-06T12:17:40.566Z,6.83
2018-10-06T12:18:44.242Z,3.80
2018-10-06T12:19:47.999Z,3.95
2018-10-06T12:20:51.677Z,6.92
2018-10-06T12:21:55.714Z,3.33
2018-10-06T12:22:59.628Z,4.40
2018-10-06T12:24:07.462Z,3.15
2018-10-06T12:25:12.468Z,5.35
2018-10-06T12:26:16.041Z,4.62
2018-10-06T12:27:20.590Z,4.25
2018-10-06T12:28:24.432Z,2.67
2018-10-06T12:29:28.108Z,4.35
2018-10-06T12:30:32.116Z,4.37
2018-10-06T12:31:35.901Z,3.80
2018-10-06T12:32:39.685Z,3.50
2018-10-06T12:33:44.360Z,3.70
2018-10-06T12:34:48.305Z,4.40
2018-10-06T12:35:53.013Z,3.75
2018-10-06T12:36:56.815Z,4.17
2018-10-06T12:38:00.498Z,3.98
2018-10-06T12:39:05.408Z,2.80
2018-10-06T12:40:09.028Z,6.70
2018-10-06T12:41:13.866Z,3.85
2018-10-06T12:42:19.348Z,4.80
2018-10-06T12:43:25.632Z,2.65
2018-10-06T12:44:29.279Z,3.25
2018-10-06T12:45:33.208Z,4.70
2018-10-06T12:46:36.858Z,2.77
2018-10-06T12:47:40.713Z,3.87
2018-10-06T12:48:44.449Z,3.00
2018-10-06T12:49:48.089Z,4.12
2018-10-06T12:50:51.823Z,2.70
2018-10-06T12:51:56.356Z,3.65
2018-10-06T12:52:59.924Z,1.98
2018-10-06T12:54:04.455Z,3.62
2018-10-06T12:55:08.174Z,5.37
2018-10-06T12:56:12.405Z,2.80
2018-10-06T12:57:16.024Z,4.30
2018-10-06T12:58:19.758Z,5.12
2018-10-06T12:59:23.494Z,4.17
2018-10-06T13:00:27.096Z,3.17
2018-10-06T13:01:31.076Z,3.08
2018-10-06T13:02:35.125Z,2.62
2018-10-06T13:03:38.959Z,2.35
2018-10-06T13:04:43.066Z,2.22
2018-10-06T13:05:47.839Z,3.87
2018-10-06T13:06:51.726Z,2.80
2018-10-06T13:07:55.700Z,2.65
2018-10-06T13:08:59.514Z,3.08
2018-10-06T13:10:03.995Z,4.80
2018-10-06T13:11:07.650Z,2.87
2018-10-06T13:12:11.607Z,2.55
2018-10-06T13:13:15.107Z,3.15
2018-10-06T13:14:18.585Z,6.45
2018-10-06T13:15:22.218Z,3.35
2018-10-06T13:16:25.912Z,5.05
2018-10-06T13:17:29.547Z,3.67
2018-10-06T13:18:33.213Z,2.90
2018-10-06T13:19:37.560Z,4.30
2018-10-06T13:20:41.164Z,4.22
2018-10-06T13:21:45.233Z,6.97
2018-10-06T13:22:49.404Z,7.08
2018-10-06T13:23:53.103Z,4.10
2018-10-06T13:24:56.723Z,4.05
2018-10-06T13:26:00.284Z,3.55
2018-10-06T13:27:03.942Z,5.47
2018-10-06T13:28:08.400Z,3.33
2018-10-06T13:29:12.216Z,3.05
2018-10-06T13:30:15.903Z,5.42
2018-10-06T13:31:19.794Z,2.22
2018-10-06T13:32:23.956Z,3.15
2018-10-06T13:33:28.300Z,3.10
2018-10-06T13:34:31.943Z,4.60
2018-10-06T13:35:35.634Z,2.30
2018-10-06T13:36:40.201Z,2.98
2018-10-06T13:37:43.899Z,4.53
2018-10-06T13:38:48.096Z,4.30
2018-10-06T13:39:51.837Z,2.70
2018-10-06T13:40:55.478Z,3.00
2018-10-06T13:41:59.492Z,5.03
2018-10-06T13:43:04.557Z,5.97
2018-10-06T13:44:08.423Z,5.80
2018-10-06T13:45:12.713Z,4.90
2018-10-06T13:46:17.174Z,3.52
2018-10-06T13:47:21.120Z,3.75
2018-10-06T13:48:24.684Z,5.00
2018-10-06T13:49:29.066Z,5.60
2018-10-06T13:50:32.812Z,2.15
2018-10-06T13:51:36.565Z,3.52
2018-10-06T13:52:40.882Z,7.42
2018-10-06T13:53:44.562Z,4.37
2018-10-06T13:54:49.086Z,4.20